Time;durP1;ratioP1;P1;durP2;ratioP2;P2;SDS_P1;SDS_P2;PMS_P1;PMS_P2;Temp;Humidity;BMP_temperature;BMP_pressure;BME280_temperature;BME280_humidity;BME280_pressure;Samples;Min_cycle;Max_cycle;Signal;HPM_P1;HPM_P2
2022/07/10 00:02:19;;;;;;;8.65;3.80;;;;;;;17.08;82.07;98936.78;1683748;85;21024;-79
2022/07/10 00:04:45;;;;;;;4.47;3.10;;;;;;;17.05;82.04;98931.67;1715317;83;21539;-79
2022/07/10 00:07:11;;;;;;;6.05;3.10;;;;;;;17.00;82.09;98924.50;1685243;85;21086;-79
2022/07/10 00:09:38;;;;;;;7.92;3.45;;;;;;;16.98;82.09;98933.08;1715071;83;21127;-79
2022/07/10 00:12:05;;;;;;;9.45;3.80;;;;;;;16.99;82.05;98937.41;1683409;85;21138;-79
2022/07/10 00:14:31;;;;;;;5.30;3.52;;;;;;;17.00;82.03;98935.63;1714554;83;21807;-79
2022/07/10 00:16:57;;;;;;;5.40;3.90;;;;;;;16.99;81.95;98942.72;1731362;82;21579;-78
2022/07/10 00:19:24;;;;;;;6.50;4.42;;;;;;;17.02;81.83;98950.48;1730737;82;21063;-79
2022/07/10 00:21:50;;;;;;;8.58;4.87;;;;;;;17.03;81.72;98948.22;1730780;82;21001;-78
2022/07/10 00:24:17;;;;;;;8.78;4.60;;;;;;;17.03;81.63;98951.33;1709259;83;21024;-80
2022/07/10 00:26:43;;;;;;;6.08;3.62;;;;;;;16.99;81.53;98949.37;1739600;81;21142;-79
2022/07/10 00:29:11;;;;;;;6.30;3.80;;;;;;;16.96;81.60;98951.39;1707696;84;21020;-79
2022/07/10 00:31:38;;;;;;;4.40;3.30;;;;;;;16.93;81.69;98949.82;1708152;83;21062;-79
2022/07/10 00:34:04;;;;;;;5.12;3.45;;;;;;;16.90;81.80;98946.05;1730957;82;21555;-79
2022/07/10 00:36:32;;;;;;;5.78;3.45;;;;;;;16.88;81.90;98948.80;1730905;82;21079;-79
2022/07/10 00:38:58;;;;;;;4.17;2.95;;;;;;;16.87;81.93;98944.44;1731007;82;21093;-79
2022/07/10 00:41:25;;;;;;;4.28;2.92;;;;;;;16.88;81.93;98944.82;1730926;82;21025;-78
2022/07/10 00:43:57;;;;;;;4.80;2.80;;;;;;;16.89;81.92;98946.98;1730891;82;21067;-79
2022/07/10 00:46:26;;;;;;;7.83;3.50;;;;;;;16.89;81.92;98944.33;1731305;82;21063;-79
2022/07/10 00:48:53;;;;;;;4.00;3.30;;;;;;;16.83;81.94;98940.77;1730805;81;21147;-79
2022/07/10 00:51:21;;;;;;;4.40;2.98;;;;;;;16.79;82.08;98931.28;1730801;81;21132;-79
2022/07/10 00:53:49;;;;;;;7.47;3.77;;;;;;;16.77;82.08;98933.21;1730910;81;21582;-79
2022/07/10 00:56:22;;;;;;;4.97;3.60;;;;;;;16.75;82.15;98931.14;1730862;81;21670;-79
2022/07/10 00:58:49;;;;;;;8.75;3.98;;;;;;;16.72;82.10;98929.05;1731094;81;20977;-79
2022/07/10 01:01:16;;;;;;;6.95;3.10;;;;;;;16.74;82.04;98941.39;1730815;82;21508;-80
2022/07/10 01:03:45;;;;;;;3.40;2.72;;;;;;;16.76;81.93;98935.48;1730927;82;21634;-79
2022/07/10 01:06:13;;;;;;;4.83;3.10;;;;;;;16.78;81.77;98937.55;1730652;81;21052;-79
2022/07/10 01:08:40;;;;;;;7.40;2.92;;;;;;;16.76;81.55;98942.13;1730819;82;21067;-79
2022/07/10 01:11:09;;;;;;;5.92;3.37;;;;;;;16.72;81.44;98941.49;1730731;82;21333;-80
2022/07/10 01:13:39;;;;;;;5.10;2.70;;;;;;;16.71;81.41;98934.50;1731142;81;21052;-79
2022/07/10 01:16:06;;;;;;;3.80;2.30;;;;;;;16.70;81.29;98929.64;1733942;82;21427;-79
2022/07/10 01:18:33;;;;;;;5.15;2.60;;;;;;;16.68;81.33;98930.72;1744940;82;21047;-79
2022/07/10 01:20:59;;;;;;;5.78;3.02;;;;;;;16.63;81.37;98919.56;1745296;81;21202;-79
2022/07/10 01:23:26;;;;;;;4.35;2.25;;;;;;;16.56;81.45;98924.45;1744764;82;21063;-79
2022/07/10 01:25:52;;;;;;;7.30;2.80;;;;;;;16.52;81.53;98926.92;1745149;82;21035;-79
2022/07/10 01:28:20;;;;;;;3.30;2.77;;;;;;;16.49;81.61;98933.77;1744824;82;21522;-77
2022/07/10 01:30:48;;;;;;;5.42;2.47;;;;;;;16.45;81.73;98924.33;1745487;82;21027;-79
2022/07/10 01:33:15;;;;;;;4.80;2.25;;;;;;;16.39;81.78;98916.31;1744790;82;21098;-79
2022/07/10 01:35:42;;;;;;;3.22;2.40;;;;;;;16.37;81.86;98914.70;1745019;82;21312;-79
2022/07/10 01:38:09;;;;;;;4.20;2.85;;;;;;;16.38;81.79;98908.45;1744747;82;21047;-79
2022/07/10 01:40:37;;;;;;;3.65;2.60;;;;;;;16.35;81.78;98905.52;1745065;81;21122;-79
2022/07/10 01:43:04;;;;;;;3.80;2.42;;;;;;;16.31;81.81;98905.36;1744752;82;21055;-79
2022/07/10 01:45:30;;;;;;;4.30;2.40;;;;;;;16.25;81.87;98903.11;1738750;82;21610;-79
2022/07/10 01:47:56;;;;;;;6.42;2.30;;;;;;;16.21;81.99;98899.82;1737011;82;21079;-79
2022/07/10 01:50:23;;;;;;;4.78;2.30;;;;;;;16.18;82.09;98893.39;1738710;82;21029;-79
2022/07/10 01:52:50;;;;;;;3.05;2.35;;;;;;;16.14;82.15;98903.85;1769502;81;21083;-79
2022/07/10 01:55:16;;;;;;;4.70;2.58;;;;;;;16.11;82.22;98901.40;1769321;81;21103;-79
2022/07/10 01:57:43;;;;;;;2.40;2.20;;;;;;;16.11;82.25;98900.08;1769078;81;21117;-79
2022/07/10 02:00:10;;;;;;;3.15;2.05;;;;;;;16.13;82.18;98899.48;1769464;81;21590;-79
2022/07/10 02:02:39;;;;;;;2.25;2.05;;;;;;;16.12;82.20;98903.08;1769156;81;21558;-80
2022/07/10 02:05:06;;;;;;;2.55;2.27;;;;;;;16.10;82.24;98897.03;1769316;81;21163;-79
2022/07/10 02:07:32;;;;;;;4.10;2.10;;;;;;;16.08;82.26;98902.93;1769542;81;21020;-79
2022/07/10 02:10:00;;;;;;;3.83;2.15;;;;;;;16.07;82.20;98899.44;1738639;81;21135;-79
2022/07/10 02:12:26;;;;;;;2.83;1.95;;;;;;;16.07;82.17;98899.89;1769127;81;21633;-79
2022/07/10 02:14:56;;;;;;;5.10;2.25;;;;;;;16.03;82.10;98898.41;1769081;81;21577;-79
2022/07/10 02:17:23;;;;;;;7.37;2.35;;;;;;;16.00;82.19;98891.97;1769213;81;21085;-80
2022/07/10 02:19:49;;;;;;;2.65;2.37;;;;;;;15.95;82.55;98894.92;1769275;81;21075;-79
2022/07/10 02:22:18;;;;;;;4.08;2.60;;;;;;;15.88;82.98;98891.83;1769469;81;21071;-79
2022/07/10 02:24:44;;;;;;;2.77;2.42;;;;;;;15.85;83.35;98890.70;1769584;81;21107;-79
2022/07/10 02:27:11;;;;;;;3.30;2.80;;;;;;;15.79;83.70;98885.83;1769607;81;21561;-79
2022/07/10 02:29:38;;;;;;;4.12;2.77;;;;;;;15.73;84.12;98884.86;1769601;81;21752;-79
2022/07/10 02:32:05;;;;;;;3.27;2.45;;;;;;;15.71;84.61;98882.80;1769948;81;21863;-79
2022/07/10 02:34:32;;;;;;;4.05;2.87;;;;;;;15.70;84.65;98883.73;1769575;81;21051;-79
2022/07/10 02:36:58;;;;;;;4.15;3.40;;;;;;;15.71;84.94;98875.68;1749728;81;21128;-79
2022/07/10 02:39:25;;;;;;;4.75;3.40;;;;;;;15.69;85.17;98874.94;1730690;82;21158;-79
2022/07/10 02:41:51;;;;;;;5.22;2.95;;;;;;;15.69;85.44;98872.77;1769729;79;21806;-79
2022/07/10 02:44:18;;;;;;;4.20;2.92;;;;;;;15.70;85.64;98870.47;1760694;81;21676;-80
2022/07/10 02:46:45;;;;;;;4.67;3.08;;;;;;;15.69;85.74;98860.84;1760871;81;21645;-79
2022/07/10 02:49:11;;;;;;;7.62;2.92;;;;;;;15.71;85.82;98864.23;1761031;80;21140;-79
2022/07/10 02:51:38;;;;;;;2.70;2.60;;;;;;;15.71;85.90;98855.78;1760778;81;21102;-79
2022/07/10 02:54:04;;;;;;;3.83;2.90;;;;;;;15.74;86.00;98858.73;1761380;81;21107;-79
2022/07/10 02:56:31;;;;;;;6.25;3.50;;;;;;;15.72;86.09;98861.97;1760763;80;21083;-78
2022/07/10 02:58:58;;;;;;;5.17;3.40;;;;;;;15.71;86.20;98858.92;1761301;80;21131;-79
2022/07/10 03:01:25;;;;;;;4.70;3.83;;;;;;;15.70;86.35;98864.72;1760768;80;21787;-79
2022/07/10 03:03:51;;;;;;;9.65;3.98;;;;;;;15.71;86.41;98861.58;1761300;81;21055;-80
2022/07/10 03:06:19;;;;;;;6.25;3.92;;;;;;;15.72;86.42;98857.50;1760787;80;21117;-79
2022/07/10 03:08:46;;;;;;;5.03;3.98;;;;;;;15.75;86.39;98860.41;1761090;81;21109;-78
2022/07/10 03:11:13;;;;;;;5.05;4.40;;;;;;;15.79;86.47;98860.63;1760958;80;21123;-79
2022/07/10 03:13:40;;;;;;;8.13;4.30;;;;;;;15.79;86.49;98868.59;1761112;80;21190;-79
2022/07/10 03:16:07;;;;;;;6.30;4.00;;;;;;;15.82;86.44;98867.06;1761229;80;21118;-80
2022/07/10 03:18:34;;;;;;;6.25;4.35;;;;;;;15.84;86.37;98862.50;1758408;81;21131;-80
2022/07/10 03:21:01;;;;;;;9.20;4.40;;;;;;;15.88;86.22;98865.30;1758127;81;21028;-79
2022/07/10 03:23:27;;;;;;;5.17;4.00;;;;;;;15.92;86.11;98873.45;1758525;81;21079;-79
2022/07/10 03:25:54;;;;;;;6.95;4.00;;;;;;;15.97;85.99;98871.82;1758211;81;21615;-78
2022/07/10 03:28:22;;;;;;;6.85;3.85;;;;;;;16.03;85.86;98863.42;1758236;81;21096;-79
2022/07/10 03:30:48;;;;;;;5.58;3.47;;;;;;;16.06;85.77;98867.69;1758295;81;21135;-79
2022/07/10 03:33:16;;;;;;;4.67;3.50;;;;;;;16.12;85.50;98863.27;1758332;80;21036;-79
2022/07/10 03:35:43;;;;;;;3.98;3.05;;;;;;;16.17;85.37;98862.48;1758424;81;21075;-80
2022/07/10 03:38:09;;;;;;;5.37;3.00;;;;;;;16.24;84.91;98870.42;1758469;81;21424;-80
2022/07/10 03:40:36;;;;;;;5.87;3.67;;;;;;;16.29;84.63;98870.95;1757951;81;21111;-77
2022/07/10 03:43:03;;;;;;;4.78;3.60;;;;;;;16.31;84.41;98867.70;1762938;81;21166;-77
2022/07/10 03:45:29;;;;;;;3.70;3.30;;;;;;;16.33;84.19;98876.41;1766728;81;21484;-76
2022/07/10 03:47:55;;;;;;;4.47;2.90;;;;;;;16.38;84.17;98880.09;1767149;81;21490;-77
2022/07/10 03:50:22;;;;;;;6.20;3.65;;;;;;;16.41;83.83;98880.34;1798210;79;21127;-77
2022/07/10 03:52:49;;;;;;;4.67;3.60;;;;;;;16.43;83.48;98880.62;1798598;79;21111;-77
2022/07/10 03:55:15;;;;;;;5.58;3.08;;;;;;;16.47;83.35;98881.25;1798128;79;21168;-77
2022/07/10 03:57:56;;;;;;;4.60;3.12;;;;;;;16.51;83.37;98889.39;1798750;79;21051;-76
2022/07/10 04:00:25;;;;;;;4.50;3.17;;;;;;;16.58;83.20;98891.98;1798352;79;21133;-77
2022/07/10 04:02:57;;;;;;;5.75;3.20;;;;;;;16.63;82.86;98887.20;1798246;79;21074;-76
2022/07/10 04:05:25;;;;;;;2.77;2.58;;;;;;;16.66;82.60;98880.36;1796978;79;21503;-77
2022/07/10 04:07:51;;;;;;;5.53;2.75;;;;;;;16.69;82.48;98883.26;1798554;79;21110;-76
2022/07/10 04:10:18;;;;;;;3.55;2.50;;;;;;;16.75;82.19;98882.00;1773164;79;21098;-76
2022/07/10 04:12:45;;;;;;;3.17;2.55;;;;;;;16.82;81.96;98884.59;1798531;79;21582;-76
2022/07/10 04:15:11;;;;;;;3.55;2.60;;;;;;;16.80;81.60;98867.91;1798093;79;21064;-76
2022/07/10 04:17:38;;;;;;;6.65;2.62;;;;;;;16.80;81.57;98874.55;1799217;79;21024;-76
2022/07/10 04:20:06;;;;;;;3.37;2.72;;;;;;;16.81;81.30;98868.27;1798625;79;21137;-76
2022/07/10 04:22:33;;;;;;;2.92;2.62;;;;;;;16.84;81.33;98870.70;1798987;79;21062;-79
2022/07/10 04:25:01;;;;;;;4.10;2.87;;;;;;;16.87;81.35;98867.88;1847174;77;21089;-79
2022/07/10 04:27:28;;;;;;;3.08;2.80;;;;;;;16.90;81.08;98867.66;1847008;77;21023;-78
2022/07/10 04:29:54;;;;;;;4.37;2.45;;;;;;;16.94;81.11;98866.95;1847070;77;20980;-79
2022/07/10 04:32:21;;;;;;;2.60;2.40;;;;;;;16.98;80.64;98871.95;1824752;77;21782;-77
2022/07/10 04:34:47;;;;;;;3.33;2.92;;;;;;;17.00;80.26;98866.04;1805184;78;21079;-78
2022/07/10 04:37:14;;;;;;;4.40;3.00;;;;;;;17.04;80.12;98870.16;1805195;78;21059;-78
2022/07/10 04:39:40;;;;;;;5.33;2.90;;;;;;;17.09;80.11;98870.68;1805350;79;21075;-79
2022/07/10 04:42:07;;;;;;;2.58;2.40;;;;;;;17.17;80.00;98867.97;1805085;79;20984;-79
2022/07/10 04:44:36;;;;;;;4.15;2.30;;;;;;;17.23;79.88;98871.49;1805167;79;21897;-79
2022/07/10 04:47:03;;;;;;;3.55;2.50;;;;;;;17.30;79.62;98866.13;1805498;78;21325;-79
2022/07/10 04:49:30;;;;;;;2.75;2.40;;;;;;;17.37;78.86;98864.70;1805179;78;21982;-79
2022/07/10 04:51:57;;;;;;;4.12;2.65;;;;;;;17.41;78.04;98861.34;1804979;79;21039;-79
2022/07/10 04:54:23;;;;;;;7.33;2.60;;;;;;;17.45;77.98;98861.50;1805455;79;21027;-79
2022/07/10 04:56:49;;;;;;;6.50;2.60;;;;;;;17.51;77.36;98864.17;1805322;79;21829;-78
2022/07/10 04:59:16;;;;;;;4.40;2.47;;;;;;;17.57;77.30;98861.07;1805489;79;21523;-79
2022/07/10 05:01:42;;;;;;;3.02;2.60;;;;;;;17.62;77.24;98865.56;1804904;78;21438;-79
2022/07/10 05:04:09;;;;;;;3.25;2.10;;;;;;;17.69;77.18;98861.48;1805352;78;20993;-79
2022/07/10 05:06:35;;;;;;;2.40;2.20;;;;;;;17.79;77.44;98863.81;1805013;79;21020;-79
2022/07/10 05:09:03;;;;;;;2.50;2.27;;;;;;;17.88;76.90;98861.47;1805186;78;21132;-79
2022/07/10 05:11:31;;;;;;;3.30;2.25;;;;;;;17.97;76.65;98854.97;1804923;78;21134;-79
2022/07/10 05:13:58;;;;;;;4.05;2.10;;;;;;;18.08;76.64;98864.79;1805098;79;21050;-78
2022/07/10 05:16:25;;;;;;;3.80;2.30;;;;;;;18.19;76.67;98858.66;1805233;79;21064;-79
2022/07/10 05:18:51;;;;;;;2.90;2.10;;;;;;;18.28;76.24;98863.76;1812158;79;21031;-78
2022/07/10 05:21:18;;;;;;;2.42;2.25;;;;;;;18.37;75.19;98863.03;1813824;78;21184;-78
2022/07/10 05:23:44;;;;;;;8.00;2.58;;;;;;;18.45;75.00;98859.30;1813413;79;21044;-78
2022/07/10 05:26:11;;;;;;;4.47;2.40;;;;;;;18.52;74.53;98861.84;1813685;79;21043;-79
2022/07/10 05:28:38;;;;;;;3.85;2.33;;;;;;;18.55;73.84;98859.43;1813671;79;21035;-79
2022/07/10 05:31:05;;;;;;;3.60;2.20;;;;;;;18.57;74.09;98854.33;1813906;78;21566;-79
2022/07/10 05:33:32;;;;;;;3.55;2.10;;;;;;;18.66;74.38;98855.91;1813851;79;21097;-77
2022/07/10 05:35:59;;;;;;;4.47;2.02;;;;;;;18.76;74.62;98850.22;1813882;79;21137;-78
2022/07/10 05:38:26;;;;;;;2.37;2.17;;;;;;;18.88;73.86;98851.13;1813515;78;21110;-79
2022/07/10 05:40:54;;;;;;;2.58;2.37;;;;;;;18.98;73.43;98853.41;1813720;79;20995;-79
2022/07/10 05:43:21;;;;;;;3.08;2.52;;;;;;;19.07;73.58;98849.99;1813962;78;20972;-79
2022/07/10 05:45:47;;;;;;;2.95;2.30;;;;;;;19.18;73.26;98850.48;1813707;79;21508;-79
2022/07/10 05:48:15;;;;;;;5.92;2.92;;;;;;;19.29;72.84;98850.92;1812473;78;21052;-79
2022/07/10 05:50:41;;;;;;;2.45;2.08;;;;;;;19.40;72.59;98846.03;1789744;79;21693;-79
2022/07/10 05:53:08;;;;;;;3.58;2.33;;;;;;;19.51;72.08;98844.67;1786601;80;22068;-79
2022/07/10 05:55:34;;;;;;;2.55;2.20;;;;;;;19.63;72.04;98838.81;1787118;80;21001;-79
2022/07/10 05:58:01;;;;;;;4.42;2.45;;;;;;;19.75;71.03;98842.31;1787050;80;21106;-79
2022/07/10 06:00:29;;;;;;;4.72;2.45;;;;;;;19.84;70.88;98838.89;1786587;80;21113;-79
2022/07/10 06:02:56;;;;;;;8.03;2.45;;;;;;;19.94;70.76;98837.13;1787063;80;21127;-79
2022/07/10 06:05:22;;;;;;;3.87;2.35;;;;;;;20.02;69.68;98837.34;1786443;80;21032;-79
2022/07/10 06:07:50;;;;;;;2.47;2.27;;;;;;;20.07;68.71;98835.59;1786934;80;21087;-78
2022/07/10 06:10:16;;;;;;;2.65;2.30;;;;;;;20.10;67.63;98833.16;1786713;80;21089;-78
2022/07/10 06:12:43;;;;;;;2.37;2.22;;;;;;;20.13;68.17;98836.91;1786834;80;20984;-79
2022/07/10 06:15:10;;;;;;;2.92;1.80;;;;;;;20.19;69.08;98834.56;1786889;80;21391;-79
2022/07/10 06:17:36;;;;;;;2.45;2.05;;;;;;;20.26;68.54;98840.70;1789513;79;21094;-79
2022/07/10 06:20:05;;;;;;;2.37;2.17;;;;;;;20.30;68.87;98840.81;1805064;79;21051;-79
2022/07/10 06:22:32;;;;;;;2.12;1.98;;;;;;;20.33;67.22;98841.39;1738784;81;21883;-79
2022/07/10 06:25:06;;;;;;;2.98;1.85;;;;;;;20.27;66.93;98836.56;1769202;81;21067;-79
2022/07/10 06:27:33;;;;;;;3.40;1.90;;;;;;;20.23;67.52;98835.14;1769266;81;21087;-79
2022/07/10 06:29:59;;;;;;;3.47;1.90;;;;;;;20.28;67.88;98836.09;1769293;81;21091;-79
2022/07/10 06:32:26;;;;;;;4.78;2.20;;;;;;;20.34;67.24;98836.41;1768899;81;21115;-79
2022/07/10 06:34:53;;;;;;;2.30;2.10;;;;;;;20.38;67.42;98834.32;1765282;81;21806;-79
2022/07/10 06:37:20;;;;;;;3.52;1.87;;;;;;;20.47;67.51;98830.84;1766837;80;21089;-79
2022/07/10 06:39:47;;;;;;;5.47;2.22;;;;;;;20.58;67.98;98829.42;1847193;77;21568;-79
2022/07/10 06:42:14;;;;;;;3.37;2.45;;;;;;;20.67;66.04;98834.48;1846960;77;21051;-78
2022/07/10 06:44:45;;;;;;;3.05;2.00;;;;;;;20.69;65.51;98830.34;1847050;77;21522;-79
2022/07/10 06:49:58;;;;;;;3.35;1.87;;;;;;;20.84;65.70;98830.32;1846904;77;21058;-80
2022/07/10 06:52:25;;;;;;;4.17;2.10;;;;;;;20.86;65.32;98835.03;1846924;77;21416;-78
2022/07/10 06:54:53;;;;;;;2.55;2.30;;;;;;;20.92;65.63;98829.66;1846799;77;21039;-79
2022/07/10 06:57:19;;;;;;;3.00;2.00;;;;;;;21.00;65.75;98832.50;1846649;77;21086;-79
2022/07/10 06:59:46;;;;;;;4.30;2.00;;;;;;;21.14;66.75;98837.95;1847041;77;21775;-78
2022/07/10 07:02:13;;;;;;;2.60;1.90;;;;;;;21.23;65.82;98833.13;1846827;77;21565;-79
2022/07/10 07:04:40;;;;;;;2.60;2.35;;;;;;;21.28;64.22;98832.69;1846829;77;21031;-78
2022/07/10 07:07:06;;;;;;;2.50;2.00;;;;;;;21.28;64.85;98834.03;1846696;77;21027;-79
2022/07/10 07:09:33;;;;;;;3.67;1.80;;;;;;;21.27;63.19;98829.68;1846990;77;21066;-79
2022/07/10 07:12:00;;;;;;;3.12;2.05;;;;;;;21.28;64.24;98824.66;1846928;77;21100;-79
2022/07/10 07:14:26;;;;;;;3.12;2.55;;;;;;;21.35;64.62;98825.83;1846890;77;21530;-79
2022/07/10 07:17:10;;;;;;;5.00;2.75;;;;;;;21.39;64.36;98821.87;1847182;77;21619;-79
2022/07/10 07:25:09;;;;;;;2.33;2.02;;;;;;;21.39;63.23;98819.20;1846856;77;21290;-79
2022/07/10 07:27:37;;;;;;;4.65;2.05;;;;;;;21.38;64.22;98814.81;1847176;77;21114;-80
2022/07/10 07:30:10;;;;;;;3.70;1.85;;;;;;;21.45;64.84;98813.30;1846723;77;21086;-78
2022/07/10 07:32:37;;;;;;;2.87;1.80;;;;;;;21.55;64.80;98813.81;1847363;77;21038;-79
2022/07/10 07:35:05;;;;;;;3.80;1.90;;;;;;;21.66;63.74;98808.33;1846991;77;21022;-79
2022/07/10 07:37:46;;;;;;;3.85;1.95;;;;;;;21.71;63.24;98810.08;1847283;77;21070;-79
2022/07/10 07:40:15;;;;;;;2.00;1.90;;;;;;;21.76;63.03;98815.86;1846814;77;21649;-79
2022/07/10 07:42:42;;;;;;;3.37;2.20;;;;;;;21.81;62.25;98817.61;1847279;77;21045;-79
2022/07/10 07:45:10;;;;;;;2.00;1.85;;;;;;;21.81;62.63;98814.94;1847351;77;21482;-79
2022/07/10 07:47:48;;;;;;;6.08;2.08;;;;;;;21.82;62.47;98813.09;1847261;77;21497;-78
2022/07/10 07:50:19;;;;;;;3.83;2.05;;;;;;;21.84;62.85;98809.80;1846021;77;21090;-79
2022/07/10 07:52:46;;;;;;;4.97;2.12;;;;;;;21.84;62.01;98811.98;1842305;77;21065;-79
2022/07/10 07:55:15;;;;;;;2.75;2.17;;;;;;;21.89;63.36;98807.03;1805668;79;21085;-79
2022/07/10 07:57:42;;;;;;;3.92;2.27;;;;;;;21.98;62.96;98808.52;1805152;79;21022;-79
2022/07/10 08:00:11;;;;;;;2.92;1.92;;;;;;;22.03;62.75;98812.44;1805294;79;21027;-80
2022/07/10 08:02:42;;;;;;;2.37;2.17;;;;;;;22.10;62.79;98807.86;1805456;79;21787;-78
2022/07/10 08:05:09;;;;;;;3.17;2.45;;;;;;;22.17;62.18;98815.16;1805164;79;21573;-79
2022/07/10 08:07:45;;;;;;;6.35;2.77;;;;;;;22.22;62.08;98808.03;1805201;79;21482;-79
2022/07/10 08:10:14;;;;;;;2.60;2.40;;;;;;;22.31;62.79;98809.02;1804209;79;20971;-78
2022/07/10 08:12:43;;;;;;;3.87;2.47;;;;;;;22.47;62.96;98810.59;1805252;79;21023;-79
2022/07/10 08:15:11;;;;;;;3.37;1.90;;;;;;;22.56;62.38;98805.71;1805414;79;21242;-79
2022/07/10 08:17:39;;;;;;;3.92;2.20;;;;;;;22.70;61.95;98803.55;1805170;79;21023;-79
2022/07/10 08:20:08;;;;;;;4.83;2.47;;;;;;;22.74;61.45;98799.55;1805280;79;21124;-79
2022/07/10 08:22:34;;;;;;;2.80;2.42;;;;;;;22.79;60.22;98806.66;1805139;79;21605;-78
2022/07/10 08:25:01;;;;;;;3.25;1.85;;;;;;;22.79;60.37;98812.02;1805447;79;21020;-80
2022/07/10 08:27:27;;;;;;;3.92;1.77;;;;;;;22.82;60.94;98813.91;1805298;79;21099;-79
2022/07/10 08:29:54;;;;;;;4.30;2.08;;;;;;;22.94;60.78;98797.63;1805629;79;21569;-79
2022/07/10 08:32:20;;;;;;;4.80;1.95;;;;;;;23.08;61.22;98805.69;1805145;79;21090;-78
2022/07/10 08:34:48;;;;;;;2.27;2.10;;;;;;;23.20;60.61;98803.16;1829012;78;21031;-79
2022/07/10 08:37:15;;;;;;;2.70;1.98;;;;;;;23.31;60.35;98802.92;1838366;77;20945;-79
2022/07/10 08:39:42;;;;;;;5.50;2.10;;;;;;;23.37;59.61;98798.80;1838296;77;21515;-79
2022/07/10 08:42:10;;;;;;;2.15;1.95;;;;;;;23.45;58.62;98800.70;1838752;77;21008;-79
2022/07/10 08:44:37;;;;;;;2.22;1.80;;;;;;;23.40;59.18;98800.31;1810890;78;21676;-79
2022/07/10 08:47:04;;;;;;;4.22;2.27;;;;;;;23.43;58.87;98794.65;1838461;77;21507;-78
2022/07/10 08:49:31;;;;;;;6.00;2.52;;;;;;;23.45;58.62;98793.52;1838298;77;21102;-78
2022/07/10 08:52:05;;;;;;;8.88;4.97;;;;;;;23.49;58.32;98790.85;1838342;78;21106;-79
2022/07/10 08:54:33;;;;;;;5.85;3.02;;;;;;;23.53;58.30;98792.73;1838311;77;21027;-79
2022/07/10 08:57:01;;;;;;;2.72;2.52;;;;;;;23.64;58.34;98788.47;1838426;78;21051;-79
2022/07/10 08:59:29;;;;;;;2.25;1.87;;;;;;;23.77;57.31;98785.88;1837952;78;21059;-79
2022/07/10 09:01:55;;;;;;;3.72;2.50;;;;;;;23.81;57.25;98784.59;1838168;77;21074;-78
2022/07/10 09:04:25;;;;;;;5.30;2.27;;;;;;;23.86;57.63;98787.67;1838179;77;22219;-79
2022/07/10 09:06:53;;;;;;;2.65;2.20;;;;;;;23.92;56.77;98785.69;1838052;77;21036;-79
2022/07/10 09:09:19;;;;;;;2.00;1.85;;;;;;;24.01;58.14;98783.42;1838644;77;20996;-79
2022/07/10 09:11:47;;;;;;;4.72;1.60;;;;;;;24.14;57.53;98784.84;1838385;78;21043;-80
2022/07/10 09:14:16;;;;;;;2.27;1.70;;;;;;;24.23;56.03;98785.25;1838595;77;21950;-79
2022/07/10 09:16:45;;;;;;;3.08;1.80;;;;;;;24.29;54.99;98789.97;1838572;77;21141;-79
2022/07/10 09:19:22;;;;;;;3.10;1.50;;;;;;;24.32;55.95;98788.31;1838320;77;21099;-79
2022/07/10 09:22:01;;;;;;;3.90;1.35;;;;;;;24.46;55.60;98782.36;1838283;78;21935;-76
2022/07/10 09:24:40;;;;;;;2.55;1.60;;;;;;;24.65;55.69;98780.46;1838497;77;21531;-78
2022/07/10 09:27:07;;;;;;;3.50;1.50;;;;;;;24.80;54.44;98788.77;1838333;77;21027;-79
2022/07/10 09:29:47;;;;;;;5.83;1.60;;;;;;;24.96;55.17;98782.59;1838392;77;21224;-77
2022/07/10 09:32:13;;;;;;;3.15;1.60;;;;;;;25.11;53.21;98778.25;1838243;78;21035;-79
2022/07/10 09:34:43;;;;;;;1.60;1.50;;;;;;;25.15;51.88;98771.55;1838216;77;21008;-77
2022/07/10 09:37:29;;;;;;;1.70;1.60;;;;;;;25.11;51.97;98780.11;1838349;77;21055;-79
2022/07/10 09:40:03;;;;;;;1.77;1.47;;;;;;;25.00;51.24;98775.88;1838121;77;20988;-78
2022/07/10 09:42:38;;;;;;;6.40;1.57;;;;;;;24.84;51.83;98776.66;1838231;78;21498;-79
2022/07/10 09:45:19;;;;;;;1.70;1.60;;;;;;;24.72;51.48;98769.39;1837971;77;21039;-79
2022/07/10 09:47:58;;;;;;;1.50;1.35;;;;;;;24.57;51.19;98768.31;1838230;77;21031;-77
2022/07/10 09:50:33;;;;;;;2.35;1.42;;;;;;;24.48;51.79;98764.72;1837934;77;21114;-79
2022/07/10 09:53:09;;;;;;;1.62;1.12;;;;;;;24.47;52.53;98764.37;1838503;77;21149;-79
2022/07/10 09:55:37;;;;;;;4.30;1.22;;;;;;;24.50;52.31;98765.91;1838073;78;21149;-78
2022/07/10 09:58:06;;;;;;;2.02;1.47;;;;;;;24.45;52.13;98760.49;1815334;78;21089;-79
2022/07/10 10:00:36;;;;;;;2.17;1.50;;;;;;;24.41;52.63;98758.27;1805148;79;21114;-78
2022/07/10 10:03:05;;;;;;;1.60;1.50;;;;;;;24.36;51.70;98758.78;1738160;82;21147;-79
2022/07/10 10:05:42;;;;;;;2.12;1.40;;;;;;;24.38;52.44;98763.48;1768965;81;21091;-78
2022/07/10 10:08:26;;;;;;;0.95;0.80;;;;;;;24.48;52.71;98765.55;1769023;81;21776;-79
2022/07/10 10:10:53;;;;;;;3.17;1.30;;;;;;;24.64;52.90;98759.94;1769538;81;21011;-78
2022/07/10 10:13:24;;;;;;;5.95;1.50;;;;;;;24.76;50.85;98764.52;1769317;81;21087;-79
2022/07/10 10:15:51;;;;;;;2.12;1.10;;;;;;;24.83;51.46;98759.69;1769341;80;21118;-79
2022/07/10 10:18:22;;;;;;;4.47;1.60;;;;;;;24.99;52.10;98755.35;1769202;81;21134;-78
2022/07/10 10:20:49;;;;;;;4.08;1.30;;;;;;;25.18;51.96;98748.82;1768843;80;21558;-79
2022/07/10 10:23:22;;;;;;;4.30;1.32;;;;;;;25.17;49.93;98747.98;1769294;81;21479;-78
2022/07/10 10:25:52;;;;;;;1.62;1.20;;;;;;;25.04;50.00;98755.70;1769049;81;21011;-79
2022/07/10 10:28:24;;;;;;;2.45;1.35;;;;;;;24.83;49.56;98754.30;1769250;81;21025;-79
2022/07/10 10:30:51;;;;;;;5.35;0.98;;;;;;;24.54;48.56;98763.22;1768560;81;21009;-79
2022/07/10 10:33:39;;;;;;;1.57;1.00;;;;;;;24.35;49.98;98758.42;1769354;81;21486;-78
2022/07/10 10:36:06;;;;;;;3.50;1.20;;;;;;;24.35;52.23;98752.22;1765718;80;22208;-78
2022/07/10 10:38:59;;;;;;;1.87;0.95;;;;;;;24.39;50.06;98751.71;1726824;83;21048;-78
2022/07/10 10:41:42;;;;;;;3.17;1.00;;;;;;;24.35;49.98;98753.56;1754076;81;21134;-78
2022/07/10 10:44:17;;;;;;;3.05;0.93;;;;;;;24.35;50.27;98746.33;1754273;81;21003;-79
2022/07/10 10:46:56;;;;;;;2.45;0.80;;;;;;;24.37;49.24;98743.48;1754359;81;21471;-79
2022/07/10 10:49:27;;;;;;;2.60;0.95;;;;;;;24.37;48.68;98736.25;1754398;81;21058;-79
2022/07/10 10:52:07;;;;;;;4.20;1.25;;;;;;;24.40;49.15;98733.24;1754231;81;21577;-79
2022/07/10 10:55:01;;;;;;;1.32;0.93;;;;;;;24.50;49.16;98728.26;1721036;81;21102;-79
2022/07/10 10:57:40;;;;;;;1.60;1.22;;;;;;;24.57;49.11;98727.98;1754370;81;21114;-79
2022/07/10 11:00:07;;;;;;;4.83;1.40;;;;;;;24.62;49.02;98721.61;1754364;81;21141;-78
2022/07/10 11:02:39;;;;;;;1.67;0.80;;;;;;;24.72;49.13;98720.13;1754208;81;21081;-79
2022/07/10 11:05:20;;;;;;;1.20;1.00;;;;;;;24.85;48.78;98714.61;1754070;81;21079;-79
2022/07/10 11:08:03;;;;;;;2.58;1.00;;;;;;;25.01;48.68;98705.72;1754506;81;21831;-79
2022/07/10 11:10:41;;;;;;;1.57;0.85;;;;;;;25.21;48.30;98710.29;1754621;81;21102;-78
2022/07/10 11:13:17;;;;;;;1.60;0.72;;;;;;;25.33;47.34;98709.48;1754247;81;21908;-79
2022/07/10 11:15:47;;;;;;;0.80;0.78;;;;;;;25.40;47.92;98702.93;1754191;81;21000;-78
2022/07/10 11:18:22;;;;;;;1.62;0.98;;;;;;;25.47;47.28;98700.41;1754159;81;21027;-79
2022/07/10 11:20:50;;;;;;;1.22;1.00;;;;;;;25.51;47.31;98703.95;1754446;81;21051;-79
2022/07/10 11:23:50;;;;;;;1.12;0.80;;;;;;;25.61;47.18;98704.30;1744578;81;21090;-78
2022/07/10 11:26:31;;;;;;;2.02;1.00;;;;;;;25.71;46.28;98711.69;1744277;81;21123;-79
2022/07/10 11:29:01;;;;;;;1.12;1.00;;;;;;;25.79;46.45;98700.91;1715843;81;21033;-78
2022/07/10 11:31:29;;;;;;;0.85;0.80;;;;;;;25.93;47.53;98698.84;1744020;82;21079;-79
2022/07/10 11:33:56;;;;;;;2.75;0.70;;;;;;;26.02;46.14;98701.04;1743686;81;21131;-79
2022/07/10 11:36:30;;;;;;;1.75;0.85;;;;;;;26.04;44.34;98699.03;1744095;81;21130;-79
2022/07/10 11:38:59;;;;;;;0.50;0.50;;;;;;;26.05;44.88;98703.91;1743895;81;21876;-79
2022/07/10 11:41:26;;;;;;;4.12;0.95;;;;;;;26.07;44.76;98703.22;1743904;81;21830;-79
2022/07/10 11:44:00;;;;;;;1.80;0.78;;;;;;;26.09;44.75;98699.84;1743957;82;21602;-78
2022/07/10 11:46:32;;;;;;;;;;;;;;;26.09;44.37;98703.88;1746908;82;21083;-79
2022/07/10 11:48:58;;;;;;;2.05;0.90;;;;;;;25.98;44.32;98707.80;1743678;82;20226;-79
2022/07/10 11:51:28;;;;;;;1.77;1.00;;;;;;;25.86;43.96;98704.59;1744218;82;21099;-79